SARI METAR and TAF weather

Enter ICAO airport designator
Station Type Date Time Source
SARI METAR 2021/03/08 02:00 UTC NOAA

SARI 080200Z 18003KT CAVOK 22/18 Q1011


Station Type Date Time Source
SARI Decoded METAR 2021/03/08 02:00 UTC NOAA

Iguazu Aerodrome, Argentina (SARI) 25-44S 054-28W 270M
Mar 07, 2021 - 09:00 PM EST / 2021.03.08 0200 UTC
Wind: from the S (180 degrees) at 3 MPH (3 KT):0
Visibility: greater than 7 mile(s):0
Temperature: 71 F (22 C)
Dew Point: 64 F (18 C)
Relative Humidity: 78%
Pressure (altimeter): 29.85 in. Hg (1011 hPa)
ob: SARI 080200Z 18003KT CAVOK 22/18 Q1011
cycle: 2

Station Type Date Time Source
SARI TAF 2021/03/08 00:00 UTC NOAA

TAF SARI 072300Z 0800/0824 VRB03KT CAVOK TX33/0819Z TN16/0810Z
BECMG 0813/0814 SCT030
BECMG 0820/0821 CAVOK

Example: see airport list